MST,Max TemperatureF,Mean TemperatureF,Min TemperatureF,Max Dew PointF,MeanDew PointF,Min DewpointF,Max Humidity, Mean Humidity, Min Humidity, Max Sea Level PressureIn, Mean Sea Level PressureIn, Min Sea Level PressureIn, Max VisibilityMiles, Mean VisibilityMiles, Min VisibilityMiles, Max Wind SpeedMPH, Mean Wind SpeedMPH, Max Gust SpeedMPH,PrecipitationIn, CloudCover, Events, WindDirDegrees
2011-12-1,26,20,15,10,8,1,73,60,47,30.53,30.44,30.23,10,10,10,26,14,34,0.00,3,,184
2011-12-2,28,20,12,18,8,1,74,63,51,30.08,29.90,29.80,10,9,1,21,4,31,0.00,5,,339
2011-12-3,26,18,10,9,6,-2,68,55,37,30.15,30.07,29.96,10,10,10,21,6,18,0.00,3,,178
2011-12-4,26,18,10,14,6,-2,74,61,43,30.39,30.20,29.97,10,8,1,28,9,37,0.00,7,,324
2011-12-5,12,4,-4,-2,-9,-17,66,55,44,30.37,30.24,30.14,10,10,7,12,5,,0.00,0,,142
2011-12-6,21,10,0,5,-4,-11,66,59,46,30.07,30.01,29.97,10,10,8,10,2,,0.00,0,,44
2011-12-7,32,22,12,14,7,0,68,57,47,30.11,30.07,30.02,10,10,8,10,3,16,0.00,1,,45
2011-12-8,24,18,12,16,9,3,80,68,59,30.13,30.09,30.02,10,10,8,16,6,23,0.00,5,,27
2011-12-9,28,18,8,16,8,0,79,65,55,30.23,30.17,30.11,10,10,8,9,3,,0.00,0,,67
2011-12-10,35,22,10,18,9,0,79,63,48,30.23,30.10,29.93,10,10,10,10,1,,0.00,0,,27
2011-12-11,39,27,15,18,9,3,68,51,33,29.90,29.86,29.82,10,10,10,9,4,21,0.00,0,,109
2011-12-12,24,18,12,12,10,5,79,70,54,30.02,29.97,29.92,10,4,0,8,2,,0.00,5,,27
2011-12-13,23,14,6,16,10,-2,86,73,63,29.93,29.85,29.77,10,7,0,8,1,,0.00,2,,30
2011-12-14,35,27,17,18,14,9,69,52,38,30.06,29.90,29.74,10,10,9,24,11,36,0.00,4,,9
2011-12-15,33,24,15,19,14,3,93,63,47,30.17,30.07,30.03,10,10,10,17,8,21,0.00,1,,190
2011-12-16,37,26,15,19,15,7,86,66,38,30.30,30.24,30.19,10,10,10,15,3,24,0.00,0,,245
2011-12-17,33,24,15,21,16,10,93,77,56,30.29,30.25,30.17,10,10,10,8,3,,0.00,0,,9
2011-12-18,48,32,17,25,18,10,93,66,40,30.07,29.94,29.87,10,10,10,14,4,22,0.00,0,,8
2011-12-19,28,22,15,23,19,12,93,85,74,30.21,30.14,30.07,10,8,3,15,7,17,0.00,5,,60
2011-12-20,35,19,6,21,14,3,100,87,56,30.04,29.84,29.73,10,10,1,13,3,20,0.00,2,,11
2011-12-21,28,24,21,27,21,16,100,82,69,30.19,29.91,29.73,10,8,1,22,9,30,0.00,6,,326
2011-12-22,21,12,3,18,9,0,100,84,58,30.28,30.25,30.20,10,7,0,13,4,,0.00,3,,110
2011-12-23,39,20,3,16,6,1,100,79,22,30.25,30.22,30.18,10,10,10,22,4,31,0.00,0,,317
2011-12-24,44,30,15,18,11,1,73,51,24,30.39,30.32,30.27,10,10,10,22,8,32,0.00,1,,278
2011-12-25,41,29,17,23,16,10,80,66,45,30.39,30.22,29.95,10,10,10,23,5,30,0.00,0,,174
2011-12-26,42,34,26,12,10,9,47,36,25,30.12,30.02,29.85,10,10,10,22,10,47,0.00,0,,282
2011-12-27,42,30,17,18,12,9,80,56,36,30.06,29.98,29.92,10,10,10,33,12,41,0.00,1,,232
2011-12-28,48,46,44,27,25,23,49,44,37,29.97,29.91,29.87,10,10,10,34,19,46,0.00,3,,227
2011-12-29,39,35,35,30,28,27,81,71,61,29.89,29.71,29.57,10,10,9,25,18,40,0.02,1,,244
2011-12-30,53,50,46,30,29,28,53,44,38,29.85,29.65,29.48,10,10,10,23,12,36,0.00,2,,204
2011-12-31,32,29,26,28,11,5,93,50,40,30.27,29.98,29.52,10,9,1,22,13,43,0.00,3,,249